createdAt,value
2018-09-12T00:00:33.783Z,14.10
2018-09-12T00:03:02.320Z,14.10
2018-09-12T00:05:30.822Z,14.00
2018-09-12T00:07:59.360Z,14.00
2018-09-12T00:10:27.897Z,13.90
2018-09-12T00:12:56.419Z,14.00
2018-09-12T00:15:24.941Z,14.00
2018-09-12T00:17:53.424Z,13.90
2018-09-12T00:20:21.941Z,13.90
2018-09-12T00:22:50.426Z,13.90
2018-09-12T00:25:18.959Z,13.80
2018-09-12T00:27:47.495Z,13.70
2018-09-12T00:30:16.042Z,13.70
2018-09-12T00:32:44.534Z,13.60
2018-09-12T00:35:13.061Z,13.70
2018-09-12T00:37:41.561Z,13.70
2018-09-12T00:40:10.106Z,13.70
2018-09-12T00:42:38.589Z,13.70
2018-09-12T00:45:07.146Z,13.70
2018-09-12T00:47:35.656Z,13.60
2018-09-12T00:50:04.226Z,13.70
2018-09-12T00:52:32.726Z,13.60
2018-09-12T00:55:01.225Z,13.50
2018-09-12T00:57:29.733Z,13.50
2018-09-12T00:59:58.236Z,13.50
2018-09-12T01:02:26.757Z,13.50
2018-09-12T01:04:55.270Z,13.50
2018-09-12T01:07:23.757Z,13.40
2018-09-12T01:09:52.330Z,13.40
2018-09-12T01:12:20.834Z,13.40
2018-09-12T01:14:49.382Z,13.40
2018-09-12T01:17:17.889Z,13.40
2018-09-12T01:19:46.641Z,13.40
2018-09-12T01:22:15.514Z,13.40
2018-09-12T01:24:47.245Z,13.40
2018-09-12T01:27:15.775Z,13.40
2018-09-12T01:29:44.296Z,13.40
2018-09-12T01:32:12.807Z,13.30
2018-09-12T01:34:41.325Z,13.30
2018-09-12T01:37:09.869Z,13.30
2018-09-12T01:39:38.390Z,13.30
2018-09-12T01:42:07.077Z,13.20
2018-09-12T01:44:35.615Z,13.30
2018-09-12T01:47:04.114Z,13.20
2018-09-12T01:49:32.641Z,13.20
2018-09-12T01:52:01.146Z,13.10
2018-09-12T01:54:29.706Z,13.10
2018-09-12T01:56:58.216Z,13.20
2018-09-12T01:59:26.740Z,13.20
2018-09-12T02:01:55.226Z,13.20
2018-09-12T02:04:23.747Z,13.20
2018-09-12T02:06:52.649Z,13.10
2018-09-12T02:09:21.181Z,13.20
2018-09-12T02:11:49.721Z,13.10
2018-09-12T02:14:18.242Z,13.10
2018-09-12T02:16:46.742Z,13.10
2018-09-12T02:19:15.323Z,13.20
2018-09-12T02:21:43.837Z,13.20
2018-09-12T02:24:12.668Z,13.20
2018-09-12T02:26:41.228Z,13.20
2018-09-12T02:29:09.750Z,13.10
2018-09-12T02:31:38.255Z,13.00
2018-09-12T02:34:06.887Z,13.00
2018-09-12T02:36:35.389Z,13.00
2018-09-12T02:39:05.772Z,13.00
2018-09-12T02:41:34.272Z,13.00
2018-09-12T02:44:02.817Z,13.00
2018-09-12T02:46:31.425Z,12.90
2018-09-12T02:48:59.935Z,12.90
2018-09-12T02:51:28.483Z,12.90
2018-09-12T02:53:56.980Z,12.90
2018-09-12T02:56:25.513Z,12.90
2018-09-12T02:58:54.010Z,12.80
2018-09-12T03:01:22.522Z,12.90
2018-09-12T03:03:51.026Z,12.90
2018-09-12T03:06:19.538Z,12.90
2018-09-12T03:08:48.047Z,12.80
2018-09-12T03:11:16.599Z,12.80
2018-09-12T03:13:45.097Z,12.80
2018-09-12T03:16:13.620Z,12.70
2018-09-12T03:18:42.106Z,12.80
2018-09-12T03:21:10.829Z,12.80
2018-09-12T03:23:39.271Z,12.80
2018-09-12T03:26:07.841Z,12.70
2018-09-12T03:28:36.333Z,12.70
2018-09-12T03:31:04.902Z,12.70
2018-09-12T03:33:33.407Z,12.60
2018-09-12T03:36:01.958Z,12.80
2018-09-12T03:38:30.458Z,12.70
2018-09-12T03:40:58.984Z,12.60
2018-09-12T03:43:27.478Z,12.50
2018-09-12T03:45:56.011Z,12.50
2018-09-12T03:48:24.519Z,12.50
2018-09-12T03:50:53.055Z,12.50
2018-09-12T03:53:21.538Z,12.50
2018-09-12T03:55:50.058Z,12.60
2018-09-12T03:58:18.550Z,12.60
2018-09-12T04:00:47.105Z,12.60
2018-09-12T04:03:15.597Z,12.60
2018-09-12T04:05:44.115Z,12.60
2018-09-12T04:08:12.630Z,12.60
2018-09-12T04:10:41.196Z,12.50
2018-09-12T04:13:09.726Z,12.50
2018-09-12T04:15:38.286Z,12.40
2018-09-12T04:18:07.390Z,12.50
2018-09-12T04:20:35.945Z,12.50
2018-09-12T04:23:05.239Z,12.60
2018-09-12T04:25:33.811Z,12.50
2018-09-12T04:28:02.354Z,12.40
2018-09-12T04:30:30.924Z,12.50
2018-09-12T04:32:59.491Z,12.50
2018-09-12T04:35:28.049Z,12.40
2018-09-12T04:37:56.578Z,12.40
2018-09-12T04:40:25.133Z,12.40
2018-09-12T04:42:53.787Z,12.40
2018-09-12T04:45:22.270Z,12.40
2018-09-12T04:47:50.812Z,12.40
2018-09-12T04:50:19.385Z,12.40
2018-09-12T04:52:48.067Z,12.30
2018-09-12T04:55:16.710Z,12.30
2018-09-12T04:57:45.232Z,12.30
2018-09-12T05:00:14.593Z,12.30
2018-09-12T05:02:43.336Z,12.30
2018-09-12T05:05:13.367Z,12.30
2018-09-12T05:07:41.994Z,12.30
2018-09-12T05:10:10.691Z,12.30
2018-09-12T05:12:40.494Z,12.30
2018-09-12T05:15:10.361Z,12.40
2018-09-12T05:17:40.597Z,12.40
2018-09-12T05:20:14.040Z,12.30
2018-09-12T05:22:45.313Z,12.40
2018-09-12T05:25:15.441Z,12.40
2018-09-12T05:27:46.223Z,12.40
2018-09-12T05:30:18.077Z,12.50
2018-09-12T05:32:50.707Z,12.50
2018-09-12T05:35:19.487Z,12.40
2018-09-12T05:37:49.135Z,12.40
2018-09-12T05:40:18.903Z,12.40
2018-09-12T05:42:47.658Z,12.50
2018-09-12T05:45:16.245Z,12.50
2018-09-12T05:47:44.810Z,12.50
2018-09-12T05:50:15.065Z,12.50
2018-09-12T05:52:45.386Z,12.60
2018-09-12T05:55:14.709Z,12.70
2018-09-12T05:57:43.366Z,12.70
2018-09-12T06:00:11.957Z,12.70
2018-09-12T06:02:41.043Z,12.70
2018-09-12T06:05:09.619Z,12.60
2018-09-12T06:07:39.442Z,12.70
2018-09-12T06:10:08.058Z,12.80
2018-09-12T06:12:36.973Z,12.80
2018-09-12T06:15:05.818Z,12.80
2018-09-12T06:17:34.521Z,12.80
2018-09-12T06:20:03.544Z,12.90
2018-09-12T06:22:32.140Z,13.00
2018-09-12T06:25:00.754Z,13.10
2018-09-12T06:27:29.339Z,13.20
2018-09-12T06:29:57.999Z,13.40
2018-09-12T06:32:26.593Z,13.50
2018-09-12T06:34:55.309Z,13.70
2018-09-12T06:37:23.881Z,13.80
2018-09-12T06:39:52.527Z,14.00
2018-09-12T06:42:21.173Z,14.20
2018-09-12T06:44:56.836Z,14.30
2018-09-12T06:47:26.438Z,14.50
2018-09-12T06:49:55.086Z,14.60
2018-09-12T06:52:24.970Z,14.80
2018-09-12T06:54:53.961Z,14.80
2018-09-12T06:57:22.519Z,14.90
2018-09-12T06:59:51.088Z,15.10
2018-09-12T07:02:19.682Z,15.20
2018-09-12T07:04:48.398Z,15.30
2018-09-12T07:07:17.008Z,15.50
2018-09-12T07:09:45.562Z,15.70
2018-09-12T07:12:14.158Z,15.80
2018-09-12T07:14:42.666Z,15.80
2018-09-12T07:17:11.186Z,15.90
2018-09-12T07:19:39.931Z,16.10
2018-09-12T07:22:08.445Z,16.10
2018-09-12T07:24:37.067Z,16.20
2018-09-12T07:27:05.657Z,16.40
2018-09-12T07:29:34.206Z,16.60
2018-09-12T07:32:02.846Z,16.70
2018-09-12T07:34:31.381Z,16.80
2018-09-12T07:36:59.903Z,17.00
2018-09-12T07:39:28.454Z,17.10
2018-09-12T07:41:56.963Z,17.20
2018-09-12T07:44:25.554Z,17.30
2018-09-12T07:46:54.118Z,17.40
2018-09-12T07:49:22.707Z,17.60
2018-09-12T07:51:51.234Z,17.60
2018-09-12T07:54:19.770Z,17.80
2018-09-12T07:56:48.281Z,17.90
2018-09-12T07:59:16.866Z,18.00
2018-09-12T08:01:45.550Z,18.10
2018-09-12T08:04:14.093Z,18.20
2018-09-12T08:06:42.726Z,18.50
2018-09-12T08:09:12.891Z,18.70
2018-09-12T08:11:41.864Z,18.80
2018-09-12T08:14:10.565Z,18.90
2018-09-12T08:16:39.137Z,19.00
2018-09-12T08:19:07.838Z,19.10
2018-09-12T08:21:37.119Z,19.30
2018-09-12T08:24:05.998Z,19.40
2018-09-12T08:26:34.864Z,19.50
2018-09-12T08:29:04.161Z,19.70
2018-09-12T08:31:32.729Z,19.90
2018-09-12T08:34:01.556Z,20.00
2018-09-12T08:36:30.246Z,20.10
2018-09-12T08:38:58.891Z,20.30
2018-09-12T08:41:27.420Z,20.50
2018-09-12T08:43:55.992Z,20.70
2018-09-12T08:46:25.233Z,20.70
2018-09-12T08:48:57.365Z,20.80
2018-09-12T08:51:25.929Z,20.90
2018-09-12T08:53:54.544Z,21.30
2018-09-12T08:56:23.469Z,21.50
2018-09-12T08:58:52.132Z,21.80
2018-09-12T09:01:20.853Z,21.80
2018-09-12T09:03:49.414Z,21.90
2018-09-12T09:06:18.092Z,21.90
2018-09-12T09:08:46.754Z,22.10
2018-09-12T09:11:15.425Z,22.10
2018-09-12T09:13:44.067Z,22.10
2018-09-12T09:16:12.632Z,22.30
2018-09-12T09:18:41.421Z,22.40
2018-09-12T09:21:09.979Z,22.60
2018-09-12T09:23:38.593Z,22.80
2018-09-12T09:26:07.198Z,22.90
2018-09-12T09:28:35.962Z,23.00
2018-09-12T09:31:07.498Z,23.10
2018-09-12T09:33:36.158Z,23.20
2018-09-12T09:36:04.718Z,23.40
2018-09-12T09:38:33.345Z,23.50
2018-09-12T09:41:01.922Z,23.50
2018-09-12T09:43:30.518Z,23.50
2018-09-12T09:45:59.133Z,23.70
2018-09-12T09:48:27.751Z,23.70
2018-09-12T09:50:56.273Z,23.80
2018-09-12T09:53:24.855Z,24.00
2018-09-12T09:55:54.200Z,23.90
2018-09-12T09:58:22.738Z,24.00
2018-09-12T10:00:56.659Z,24.10
2018-09-12T10:03:30.601Z,24.10
2018-09-12T10:06:04.603Z,24.30
2018-09-12T10:08:38.416Z,24.60
2018-09-12T10:11:07.120Z,24.70
2018-09-12T10:13:35.685Z,24.90
2018-09-12T10:16:04.240Z,25.00
2018-09-12T10:18:33.053Z,25.00
2018-09-12T10:21:01.580Z,25.10
2018-09-12T10:23:30.095Z,25.20
2018-09-12T10:25:59.060Z,25.20
2018-09-12T10:28:27.545Z,25.40
2018-09-12T10:30:56.116Z,25.20
2018-09-12T10:33:24.622Z,25.20
2018-09-12T10:35:53.170Z,25.40
2018-09-12T10:38:21.802Z,25.40
2018-09-12T10:40:50.384Z,25.50
2018-09-12T10:43:18.912Z,25.50
2018-09-12T10:45:47.461Z,25.80
2018-09-12T10:48:15.988Z,25.70
2018-09-12T10:50:44.795Z,25.80
2018-09-12T10:53:13.966Z,25.90
2018-09-12T10:55:42.586Z,26.10
2018-09-12T10:58:11.098Z,26.10
2018-09-12T11:00:39.649Z,26.10
2018-09-12T11:03:08.158Z,26.20
2018-09-12T11:05:36.717Z,26.50
2018-09-12T11:08:05.289Z,26.50
2018-09-12T11:10:34.037Z,26.40
2018-09-12T11:13:02.578Z,26.50
2018-09-12T11:15:31.138Z,26.60
2018-09-12T11:17:59.749Z,26.70
2018-09-12T11:20:28.460Z,26.70
2018-09-12T11:22:57.021Z,26.70
2018-09-12T11:25:26.466Z,26.80
2018-09-12T11:27:55.137Z,26.80
2018-09-12T11:30:23.752Z,26.90
2018-09-12T11:32:52.509Z,26.90
2018-09-12T11:35:21.126Z,27.00
2018-09-12T11:37:49.661Z,27.20
2018-09-12T11:40:18.581Z,27.20
2018-09-12T11:42:47.097Z,27.20
2018-09-12T11:45:15.770Z,27.20
2018-09-12T11:47:44.406Z,27.30
2018-09-12T11:50:12.977Z,27.30
2018-09-12T11:52:41.522Z,27.30
2018-09-12T11:55:10.444Z,27.50
2018-09-12T11:57:39.061Z,27.50
2018-09-12T12:00:07.860Z,27.40
2018-09-12T12:02:36.689Z,27.50
2018-09-12T12:05:06.732Z,27.40
2018-09-12T12:07:36.166Z,27.50
2018-09-12T12:10:04.950Z,27.60
2018-09-12T12:12:33.581Z,27.70
2018-09-12T12:15:02.831Z,27.70
2018-09-12T12:17:31.377Z,27.70
2018-09-12T12:20:02.426Z,27.80
2018-09-12T12:22:31.468Z,27.80
2018-09-12T12:25:00.097Z,27.80
2018-09-12T12:27:30.316Z,27.90
2018-09-12T12:29:59.644Z,27.90
2018-09-12T12:32:29.760Z,27.90
2018-09-12T12:34:59.072Z,27.90
2018-09-12T12:37:27.735Z,27.90
2018-09-12T12:39:56.285Z,28.00
2018-09-12T12:42:25.198Z,28.00
2018-09-12T12:44:54.049Z,28.00
2018-09-12T12:47:22.649Z,28.00
2018-09-12T12:49:51.314Z,27.90
2018-09-12T12:52:20.397Z,28.00
2018-09-12T12:54:49.004Z,28.10
2018-09-12T12:57:17.678Z,28.20
2018-09-12T12:59:46.228Z,28.20
2018-09-12T13:02:16.206Z,28.30
2018-09-12T13:04:44.946Z,28.20
2018-09-12T13:07:14.127Z,28.20
2018-09-12T13:09:42.849Z,28.20
2018-09-12T13:12:11.569Z,28.10
2018-09-12T13:14:40.356Z,28.20
2018-09-12T13:17:09.815Z,28.10
2018-09-12T13:19:38.512Z,28.20
2018-09-12T13:22:07.058Z,28.10
2018-09-12T13:24:35.566Z,28.10
2018-09-12T13:27:04.211Z,28.20
2018-09-12T13:29:32.829Z,28.20
2018-09-12T13:32:01.381Z,28.40
2018-09-12T13:34:29.926Z,28.40
2018-09-12T13:36:58.537Z,28.40
2018-09-12T13:39:27.065Z,28.40
2018-09-12T13:41:55.672Z,28.40
2018-09-12T13:44:24.270Z,28.20
2018-09-12T13:46:52.882Z,28.30
2018-09-12T13:49:21.405Z,28.40
2018-09-12T13:51:49.926Z,28.30
2018-09-12T13:54:18.461Z,28.30
2018-09-12T13:56:47.246Z,28.30
2018-09-12T13:59:15.757Z,28.30
2018-09-12T14:01:44.284Z,28.20
2018-09-12T14:04:12.807Z,28.20
2018-09-12T14:06:41.378Z,28.30
2018-09-12T14:09:10.941Z,28.20
2018-09-12T14:11:39.560Z,28.20
2018-09-12T14:14:08.574Z,28.20
2018-09-12T14:16:37.106Z,28.20
2018-09-12T14:19:05.622Z,28.30
2018-09-12T14:21:34.169Z,28.30
2018-09-12T14:24:02.688Z,28.30
2018-09-12T14:26:31.211Z,28.40
2018-09-12T14:28:59.710Z,28.30
2018-09-12T14:31:28.239Z,28.30
2018-09-12T14:33:56.737Z,28.30
2018-09-12T14:36:25.253Z,28.40
2018-09-12T14:38:53.769Z,28.40
2018-09-12T14:41:22.313Z,28.30
2018-09-12T14:43:50.814Z,28.30
2018-09-12T14:46:19.359Z,28.30
2018-09-12T14:48:47.855Z,28.30
2018-09-12T14:51:16.368Z,28.30
2018-09-12T14:53:44.952Z,28.30
2018-09-12T14:56:13.548Z,28.30
2018-09-12T14:58:44.082Z,28.30
2018-09-12T15:01:12.608Z,28.30
2018-09-12T15:03:41.105Z,28.30
2018-09-12T15:06:09.633Z,28.30
2018-09-12T15:08:38.198Z,28.20
2018-09-12T15:11:06.877Z,28.20
2018-09-12T15:13:35.437Z,28.20
2018-09-12T15:16:04.053Z,28.20
2018-09-12T15:18:32.617Z,28.20
2018-09-12T15:21:01.145Z,28.20
2018-09-12T15:23:29.705Z,28.20
2018-09-12T15:25:58.469Z,28.20
2018-09-12T15:28:27.037Z,28.10
2018-09-12T15:30:55.596Z,27.90
2018-09-12T15:33:24.145Z,27.90
2018-09-12T15:35:52.701Z,27.90
2018-09-12T15:38:21.247Z,27.80
2018-09-12T15:40:49.775Z,28.00
2018-09-12T15:43:19.599Z,28.00
2018-09-12T15:45:48.126Z,27.90
2018-09-12T15:48:16.687Z,27.80
2018-09-12T15:50:45.221Z,27.70
2018-09-12T15:53:13.786Z,27.70
2018-09-12T15:55:42.309Z,27.60
2018-09-12T15:58:10.933Z,27.70
2018-09-12T16:00:39.442Z,27.80
2018-09-12T16:03:08.010Z,27.70
2018-09-12T16:05:36.549Z,27.60
2018-09-12T16:08:05.134Z,27.50
2018-09-12T16:10:33.671Z,27.30
2018-09-12T16:13:02.220Z,27.30
2018-09-12T16:15:30.803Z,27.30
2018-09-12T16:17:59.713Z,27.20
2018-09-12T16:20:28.293Z,27.30
2018-09-12T16:22:56.862Z,27.30
2018-09-12T16:25:25.357Z,27.10
2018-09-12T16:27:53.913Z,27.10
2018-09-12T16:30:22.415Z,27.00
2018-09-12T16:32:50.991Z,27.00
2018-09-12T16:35:19.490Z,27.10
2018-09-12T16:37:48.019Z,26.90
2018-09-12T16:40:17.554Z,26.80
2018-09-12T16:42:46.082Z,26.70
2018-09-12T16:45:14.587Z,26.70
2018-09-12T16:47:43.113Z,26.70
2018-09-12T16:50:11.635Z,26.50
2018-09-12T16:52:40.200Z,26.50
2018-09-12T16:55:08.710Z,26.40
2018-09-12T16:57:37.244Z,26.20
2018-09-12T17:00:05.817Z,26.30
2018-09-12T17:02:34.435Z,26.30
2018-09-12T17:05:02.993Z,26.10
2018-09-12T17:07:31.517Z,26.00
2018-09-12T17:10:00.027Z,25.80
2018-09-12T17:12:28.645Z,25.70
2018-09-12T17:14:57.197Z,25.60
2018-09-12T17:17:25.745Z,25.60
2018-09-12T17:19:54.286Z,25.40
2018-09-12T17:22:22.893Z,25.40
2018-09-12T17:24:51.425Z,25.20
2018-09-12T17:27:19.957Z,25.10
2018-09-12T17:29:48.513Z,25.00
2018-09-12T17:32:17.106Z,24.90
2018-09-12T17:34:45.650Z,25.10
2018-09-12T17:37:14.185Z,25.00
2018-09-12T17:39:42.751Z,24.90
2018-09-12T17:42:11.277Z,24.80
2018-09-12T17:44:39.845Z,24.90
2018-09-12T17:47:08.375Z,24.70
2018-09-12T17:49:36.956Z,24.50
2018-09-12T17:52:05.882Z,24.40
2018-09-12T17:54:34.437Z,24.20
2018-09-12T17:57:02.976Z,24.00
2018-09-12T17:59:31.533Z,23.80
2018-09-12T18:02:00.686Z,23.70
2018-09-12T18:04:29.245Z,23.60
2018-09-12T18:06:57.815Z,23.40
2018-09-12T18:09:26.384Z,23.30
2018-09-12T18:11:54.961Z,23.30
2018-09-12T18:14:23.509Z,23.30
2018-09-12T18:16:52.050Z,23.30
2018-09-12T18:19:20.610Z,23.40
2018-09-12T18:21:49.141Z,23.30
2018-09-12T18:24:17.745Z,23.20
2018-09-12T18:26:46.310Z,23.10
2018-09-12T18:29:16.085Z,23.10
2018-09-12T18:31:44.613Z,23.10
2018-09-12T18:34:13.166Z,23.00
2018-09-12T18:36:41.717Z,23.00
2018-09-12T18:39:10.936Z,22.90
2018-09-12T18:41:39.663Z,22.90
2018-09-12T18:44:08.520Z,22.80
2018-09-12T18:46:37.110Z,22.80
2018-09-12T18:49:05.673Z,22.70
2018-09-12T18:51:34.237Z,22.60
2018-09-12T18:54:02.888Z,22.60
2018-09-12T18:56:31.385Z,22.50
2018-09-12T18:58:59.911Z,22.40
2018-09-12T19:01:28.485Z,22.40
2018-09-12T19:03:57.019Z,22.30
2018-09-12T19:06:25.582Z,22.30
2018-09-12T19:08:54.130Z,22.20
2018-09-12T19:11:22.692Z,22.10
2018-09-12T19:13:51.284Z,22.00
2018-09-12T19:16:19.801Z,21.90
2018-09-12T19:18:48.621Z,21.70
2018-09-12T19:21:17.218Z,21.70
2018-09-12T19:23:45.793Z,21.60
2018-09-12T19:26:14.322Z,21.60
2018-09-12T19:28:42.819Z,21.50
2018-09-12T19:31:11.335Z,21.40
2018-09-12T19:33:40.437Z,21.40
2018-09-12T19:36:09.015Z,21.20
2018-09-12T19:38:37.458Z,21.10
2018-09-12T19:41:05.989Z,21.10
2018-09-12T19:43:34.773Z,20.90
2018-09-12T19:46:03.371Z,21.00
2018-09-12T19:48:32.018Z,20.90
2018-09-12T19:51:00.537Z,20.90
2018-09-12T19:53:29.077Z,20.90
2018-09-12T19:55:57.716Z,20.80
2018-09-12T19:58:26.441Z,20.70
2018-09-12T20:00:55.754Z,20.70
2018-09-12T20:03:24.386Z,20.70
2018-09-12T20:05:53.126Z,20.60
2018-09-12T20:08:21.649Z,20.50
2018-09-12T20:10:50.279Z,20.50
2018-09-12T20:13:18.817Z,20.40
2018-09-12T20:15:47.625Z,20.40
2018-09-12T20:18:17.042Z,20.30
2018-09-12T20:20:46.546Z,20.30
2018-09-12T20:23:15.155Z,20.10
2018-09-12T20:25:43.770Z,20.20
2018-09-12T20:28:12.360Z,20.20
2018-09-12T20:30:40.962Z,20.10
2018-09-12T20:33:09.536Z,20.10
2018-09-12T20:35:38.103Z,19.80
2018-09-12T20:38:06.682Z,19.80
2018-09-12T20:40:35.213Z,19.80
2018-09-12T20:43:03.767Z,19.70
2018-09-12T20:45:32.291Z,19.60
2018-09-12T20:48:00.958Z,19.50
2018-09-12T20:50:29.763Z,19.50
2018-09-12T20:52:58.294Z,19.50
2018-09-12T20:55:26.826Z,19.40
2018-09-12T20:57:55.398Z,19.40
2018-09-12T21:00:24.046Z,19.40
2018-09-12T21:02:52.604Z,19.40
2018-09-12T21:05:21.137Z,19.30
2018-09-12T21:07:49.697Z,19.20
2018-09-12T21:10:18.221Z,19.20
2018-09-12T21:12:46.813Z,19.20
2018-09-12T21:15:15.342Z,19.10
2018-09-12T21:17:43.905Z,19.10
2018-09-12T21:20:12.538Z,19.10
2018-09-12T21:22:41.089Z,18.90
2018-09-12T21:25:09.618Z,19.00
2018-09-12T21:27:38.190Z,18.90
2018-09-12T21:30:07.569Z,18.90
2018-09-12T21:32:36.146Z,18.80
2018-09-12T21:35:04.735Z,18.80
2018-09-12T21:37:33.290Z,18.80
2018-09-12T21:40:01.830Z,18.80
2018-09-12T21:42:30.381Z,18.70
2018-09-12T21:44:58.911Z,18.70
2018-09-12T21:47:27.680Z,18.70
2018-09-12T21:49:56.918Z,18.70
2018-09-12T21:52:25.468Z,18.70
2018-09-12T21:54:53.987Z,18.60
2018-09-12T21:57:22.548Z,18.50
2018-09-12T21:59:51.086Z,18.50
2018-09-12T22:02:19.674Z,18.50
2018-09-12T22:04:48.212Z,18.30
2018-09-12T22:07:16.773Z,18.30
2018-09-12T22:09:45.296Z,18.20
2018-09-12T22:12:13.838Z,18.20
2018-09-12T22:14:42.332Z,18.20
2018-09-12T22:17:10.881Z,18.20
2018-09-12T22:19:39.377Z,18.20
2018-09-12T22:22:07.895Z,18.20
2018-09-12T22:24:36.393Z,18.20
2018-09-12T22:27:05.505Z,18.30
2018-09-12T22:29:33.997Z,18.30
2018-09-12T22:32:02.508Z,18.20
2018-09-12T22:34:31.004Z,18.10
2018-09-12T22:36:59.522Z,18.10
2018-09-12T22:39:28.037Z,18.00
2018-09-12T22:41:56.565Z,18.10
2018-09-12T22:44:25.057Z,18.10
2018-09-12T22:46:53.593Z,18.00
2018-09-12T22:49:22.120Z,17.90
2018-09-12T22:51:50.633Z,17.90
2018-09-12T22:54:19.157Z,17.90
2018-09-12T22:56:47.648Z,17.80
2018-09-12T22:59:16.160Z,17.70
2018-09-12T23:01:44.652Z,17.70
2018-09-12T23:04:13.193Z,17.70
2018-09-12T23:06:41.775Z,17.60
2018-09-12T23:09:10.569Z,17.60
2018-09-12T23:11:39.334Z,17.50
2018-09-12T23:14:08.589Z,17.50
2018-09-12T23:16:37.516Z,17.40
2018-09-12T23:19:06.145Z,17.40
2018-09-12T23:21:34.671Z,17.50
2018-09-12T23:24:03.201Z,17.40
2018-09-12T23:26:31.688Z,17.30
2018-09-12T23:29:00.243Z,17.30
2018-09-12T23:31:28.740Z,17.30
2018-09-12T23:33:57.248Z,17.30
2018-09-12T23:36:25.752Z,17.30
2018-09-12T23:38:54.498Z,17.20
2018-09-12T23:41:23.062Z,17.20
2018-09-12T23:43:51.591Z,17.20
2018-09-12T23:46:20.101Z,17.30
2018-09-12T23:48:48.641Z,17.20
2018-09-12T23:51:17.209Z,17.20
2018-09-12T23:53:45.732Z,17.20
2018-09-12T23:56:14.243Z,17.20
2018-09-12T23:58:42.786Z,17.10
